Roswell, GA (30075)

11:00 PM EST on January 19, 2017 (GMT -0500)
Roswell/Marietta/E. Cobb | | Change Station

Elev 1071 ft 34.04 °N, 84.41 °W | Updated 24 seconds ago

Rain
Rain
54.7 °F
Feels Like 54.7 °F
N
0.0
Wind Variable Wind from SE
Gusts 0.0 mph

Today
High -- | Low -- °F
--% Chance of Precip.
Yesterday
High -- | Low -- °F
Precip. -- in
Pressure 29.87 in
Visibility 7.0 miles
Clouds Mostly Cloudy 1900 ft
Overcast 2800 ft
Dew Point 50 °F
Humidity 85%
Rainfall 0.12 in
Snow Depth Not available.
7:41 AM 5:55 PM
Waning Gibbous, 48% visible
SPECI KMGE 200354Z 11006KT 7SM BKN019 OVC028 13/11 A2987 RMK AO2A $
Pressure 29.87 in
Visibility 7.0 miles
Clouds Mostly Cloudy 1900 ft
Overcast 2800 ft
Dew Point 50 °F
Humidity 85%
Rainfall 0.12 in
Snow Depth Not available.
7:41 AM 5:55 PM
Waning Gibbous, 48% visible
SPECI KMGE 200354Z 11006KT 7SM BKN019 OVC028 13/11 A2987 RMK AO2A $

Get Your Daily Forecast Email!

Thanks for signing up!

Be on the lookout for a verification email in your inbox.

You'll start receiving the daily forecast at 8 AM.

×

10-Day Weather Forecast

Almanac

Astronomy

Jan. 19, 2017 Rise Set
Actual Time
Civil Twilight
Nautical Twilight
Astronomical Twilight
Moon
Length of Visible Light
Length of Day
Tomorrow will be .
, % of the Moon is Illuminated

Today's Extremes

State Highs State Lows

Community

WunderPhotos

Upload Photos

1,962,540 photos uploaded!

WunderBlog® & News

Nearby

Air Quality

  Air Quality AQ Index Pollutant
Not available.

Snow Depth

Station Depth Elevation

Earthquake Activity

City Distance Mag. Time & Date
Minimum magnitude displayed is 2.5.

Coastal Water Temperatures

Place Temperature

Stations

Nearby Weather Stations

Station Location Temp. Windchill Dew Point Humidity Wind Precip. Elev Updated Type
                   

Watches & Warnings

There are currently no watches in effect.